createdAt,value
2022-11-23T00:01:18.525Z,4.62
2022-11-23T00:03:46.180Z,4.79
2022-11-23T00:06:13.251Z,4.77
2022-11-23T00:08:40.255Z,4.46
2022-11-23T00:11:07.486Z,4.21
2022-11-23T00:13:40.137Z,4.23
2022-11-23T00:16:07.962Z,4.14
2022-11-23T00:18:35.125Z,4.11
2022-11-23T00:21:09.724Z,3.96
2022-11-23T00:23:57.215Z,3.82
2022-11-23T00:26:37.714Z,3.77
2022-11-23T00:29:25.200Z,3.81
2022-11-23T00:32:26.223Z,3.55
2022-11-23T00:35:06.739Z,3.68
2022-11-23T00:37:33.478Z,3.60
2022-11-23T00:40:00.466Z,3.72
2022-11-23T00:42:27.278Z,3.84
2022-11-23T00:44:54.059Z,3.91
2022-11-23T00:47:20.839Z,3.85
2022-11-23T00:49:47.647Z,3.79
2022-11-23T00:52:17.685Z,3.75
2022-11-23T00:54:44.874Z,3.74
2022-11-23T00:57:11.619Z,3.74
2022-11-23T00:59:38.917Z,3.79
2022-11-23T01:02:05.704Z,3.87
2022-11-23T01:04:32.542Z,3.63
2022-11-23T01:06:59.865Z,3.51
2022-11-23T01:09:47.226Z,3.81
2022-11-23T01:12:48.207Z,3.98
2022-11-23T01:15:49.215Z,3.95
2022-11-23T01:18:29.761Z,3.83
2022-11-23T01:20:56.629Z,3.71
2022-11-23T01:23:44.218Z,3.65
2022-11-23T01:26:24.990Z,3.64
2022-11-23T01:28:52.131Z,3.59
2022-11-23T01:31:46.553Z,3.47
2022-11-23T01:34:27.644Z,3.29
2022-11-23T01:36:54.412Z,3.26
2022-11-23T01:39:41.242Z,3.17
2022-11-23T01:42:21.720Z,3.19
2022-11-23T01:44:48.733Z,3.08
2022-11-23T01:47:15.624Z,2.91
2022-11-23T01:49:45.819Z,2.97
2022-11-23T01:52:22.313Z,2.86
2022-11-23T01:54:56.992Z,2.96
2022-11-23T01:57:27.824Z,2.87
2022-11-23T01:59:55.411Z,2.95
2022-11-23T02:02:22.405Z,3.13
2022-11-23T02:04:53.891Z,3.19
2022-11-23T02:07:22.076Z,3.05
2022-11-23T02:09:51.778Z,2.94
2022-11-23T02:12:32.232Z,3.00
2022-11-23T02:15:33.366Z,3.06
2022-11-23T02:18:22.833Z,2.99
2022-11-23T02:20:50.269Z,2.91
2022-11-23T02:23:46.297Z,2.97
2022-11-23T02:26:28.650Z,2.95
2022-11-23T02:29:01.525Z,3.02
2022-11-23T02:31:51.276Z,3.01
2022-11-23T02:34:31.788Z,2.95
2022-11-23T02:36:59.952Z,2.96
2022-11-23T02:39:36.345Z,2.73
2022-11-23T02:42:04.062Z,2.47
2022-11-23T02:44:53.002Z,2.33
2022-11-23T02:47:19.897Z,2.44
2022-11-23T02:49:47.676Z,2.42
2022-11-23T02:52:34.304Z,2.39
2022-11-23T02:55:14.733Z,2.15
2022-11-23T02:57:41.510Z,2.05
2022-11-23T03:00:11.223Z,2.17
2022-11-23T03:02:38.231Z,2.21
2022-11-23T03:05:05.190Z,2.06
2022-11-23T03:07:32.361Z,2.08
2022-11-23T03:09:59.507Z,2.12
2022-11-23T03:12:26.390Z,2.03
2022-11-23T03:14:53.355Z,1.99
2022-11-23T03:17:21.149Z,2.25
2022-11-23T03:19:48.120Z,2.12
2022-11-23T03:22:15.063Z,2.16
2022-11-23T03:25:02.285Z,2.09
2022-11-23T03:28:03.262Z,1.95
2022-11-23T03:31:04.338Z,1.81
2022-11-23T03:33:44.844Z,1.71
2022-11-23T03:36:11.799Z,1.64
2022-11-23T03:38:42.647Z,1.58
2022-11-23T03:41:24.097Z,1.68
2022-11-23T03:43:53.186Z,1.94
2022-11-23T03:46:20.153Z,1.92
2022-11-23T03:48:46.977Z,1.65
2022-11-23T03:51:14.045Z,1.54
2022-11-23T03:53:40.912Z,1.58
2022-11-23T03:56:08.747Z,1.48
2022-11-23T03:59:01.306Z,1.56
2022-11-23T04:02:02.334Z,1.61
2022-11-23T04:04:50.727Z,1.55
2022-11-23T04:07:43.494Z,1.56
2022-11-23T04:10:10.872Z,1.79
2022-11-23T04:12:59.925Z,1.90
2022-11-23T04:15:28.047Z,1.81
2022-11-23T04:17:55.426Z,1.69
2022-11-23T04:20:22.292Z,1.83
2022-11-23T04:22:49.105Z,1.84
2022-11-23T04:25:36.302Z,1.99
2022-11-23T04:28:16.986Z,1.78
2022-11-23T04:31:06.289Z,1.67
2022-11-23T04:34:21.307Z,1.58
2022-11-23T04:37:01.744Z,1.72
2022-11-23T04:39:36.200Z,1.73
2022-11-23T04:42:12.589Z,1.59
2022-11-23T04:44:41.365Z,1.43
2022-11-23T04:47:09.429Z,1.57
2022-11-23T04:49:37.889Z,1.76
2022-11-23T04:52:05.462Z,1.83
2022-11-23T04:54:37.325Z,1.72
2022-11-23T04:57:08.014Z,1.84
2022-11-23T04:59:55.325Z,1.84
2022-11-23T05:02:35.722Z,1.45
2022-11-23T05:05:10.200Z,1.27
2022-11-23T05:07:37.178Z,1.17
2022-11-23T05:10:04.629Z,1.14
2022-11-23T05:12:33.866Z,1.09
2022-11-23T05:15:01.677Z,1.05
2022-11-23T05:17:34.443Z,1.01
2022-11-23T05:20:01.671Z,1.00
2022-11-23T05:22:31.242Z,0.90
2022-11-23T05:25:18.379Z,0.97
2022-11-23T05:28:30.095Z,0.89
2022-11-23T05:31:14.341Z,0.91
2022-11-23T05:33:54.864Z,0.86
2022-11-23T05:36:33.776Z,0.82
2022-11-23T05:39:00.969Z,0.83
2022-11-23T05:41:31.652Z,0.90
2022-11-23T05:44:01.454Z,0.90
2022-11-23T05:46:29.659Z,0.81
2022-11-23T05:48:56.624Z,0.86
2022-11-23T05:51:24.801Z,0.83
2022-11-23T05:53:52.225Z,0.78
2022-11-23T05:56:46.412Z,0.85
2022-11-23T05:59:51.396Z,0.77
2022-11-23T06:03:06.357Z,0.85
2022-11-23T06:05:47.849Z,0.84
2022-11-23T06:08:17.291Z,0.71
2022-11-23T06:10:45.309Z,0.70
2022-11-23T06:13:12.221Z,0.77
2022-11-23T06:15:39.201Z,0.80
2022-11-23T06:18:26.381Z,0.86
2022-11-23T06:21:07.281Z,0.85
2022-11-23T06:23:54.371Z,0.94
2022-11-23T06:26:36.829Z,0.87
2022-11-23T06:29:04.723Z,1.17
2022-11-23T06:31:53.349Z,1.18
2022-11-23T06:34:34.801Z,1.24
2022-11-23T06:37:01.616Z,1.21
2022-11-23T06:39:28.822Z,1.21
2022-11-23T06:42:10.767Z,1.26
2022-11-23T06:44:42.908Z,1.18
2022-11-23T06:47:16.539Z,1.18
2022-11-23T06:50:04.389Z,1.21
2022-11-23T06:53:09.381Z,0.94
2022-11-23T06:56:14.367Z,1.25
2022-11-23T06:58:54.799Z,1.25
2022-11-23T07:01:26.085Z,1.36
2022-11-23T07:04:03.430Z,1.27
2022-11-23T07:06:42.144Z,1.25
2022-11-23T07:09:17.677Z,1.38
2022-11-23T07:11:58.894Z,1.31
2022-11-23T07:14:26.280Z,1.65
2022-11-23T07:16:55.517Z,1.58
2022-11-23T07:19:23.148Z,1.64
2022-11-23T07:21:51.827Z,1.71
2022-11-23T07:24:43.950Z,1.76
2022-11-23T07:27:47.486Z,1.55
2022-11-23T07:30:48.383Z,1.79
2022-11-23T07:33:28.856Z,1.68
2022-11-23T07:35:56.226Z,1.70
2022-11-23T07:38:23.187Z,1.68
2022-11-23T07:40:51.523Z,1.70
2022-11-23T07:43:34.205Z,1.78
2022-11-23T07:46:02.673Z,1.85
2022-11-23T07:48:34.756Z,1.76
2022-11-23T07:51:03.159Z,1.71
2022-11-23T07:53:50.410Z,1.99
2022-11-23T07:56:52.437Z,2.30
2022-11-23T07:59:33.145Z,2.47
2022-11-23T08:02:00.275Z,2.63
2022-11-23T08:04:27.302Z,2.86
2022-11-23T08:06:55.441Z,3.17
2022-11-23T08:09:22.534Z,3.37
2022-11-23T08:11:49.348Z,3.56
2022-11-23T08:14:16.366Z,3.77
2022-11-23T08:17:03.436Z,3.75
2022-11-23T08:19:47.591Z,3.84
2022-11-23T08:22:15.851Z,3.65
2022-11-23T08:25:03.457Z,3.61
2022-11-23T08:28:10.418Z,3.91
2022-11-23T08:31:11.466Z,4.25
2022-11-23T08:34:12.433Z,4.64
2022-11-23T08:36:52.936Z,4.76
2022-11-23T08:39:19.763Z,4.60
2022-11-23T08:41:47.696Z,4.93
2022-11-23T08:44:34.966Z,5.11
2022-11-23T08:47:14.931Z,5.19
2022-11-23T08:50:02.494Z,5.33
2022-11-23T08:53:08.455Z,4.29
2022-11-23T08:55:48.947Z,4.26
2022-11-23T08:58:15.902Z,4.09
2022-11-23T09:00:42.705Z,4.21
2022-11-23T09:03:09.741Z,4.27
2022-11-23T09:05:38.717Z,4.30
2022-11-23T09:08:05.898Z,4.40
2022-11-23T09:10:32.654Z,4.72
2022-11-23T09:13:20.466Z,4.95
2022-11-23T09:16:21.479Z,5.07
2022-11-23T09:19:12.129Z,5.22
2022-11-23T09:21:39.862Z,5.32
2022-11-23T09:24:26.584Z,5.26
2022-11-23T09:27:07.132Z,5.47
2022-11-23T09:29:34.044Z,5.45
2022-11-23T09:32:21.465Z,5.66
2022-11-23T09:35:15.597Z,5.94
2022-11-23T09:37:57.217Z,5.70
2022-11-23T09:40:24.358Z,5.71
2022-11-23T09:42:51.146Z,5.60
2022-11-23T09:45:48.449Z,6.05
2022-11-23T09:48:32.118Z,5.97
2022-11-23T09:51:14.992Z,5.81
2022-11-23T09:54:18.438Z,5.98
2022-11-23T09:57:19.459Z,6.08
2022-11-23T10:00:06.912Z,6.11
2022-11-23T10:02:37.281Z,6.57
2022-11-23T10:05:04.406Z,6.41
2022-11-23T10:07:43.518Z,6.32
2022-11-23T10:10:31.815Z,6.45
2022-11-23T10:13:10.773Z,6.58
2022-11-23T10:15:47.016Z,6.64
2022-11-23T10:18:46.574Z,6.35
2022-11-23T10:21:26.876Z,6.61
2022-11-23T10:24:16.475Z,6.74
2022-11-23T10:26:57.662Z,6.75
2022-11-23T10:29:27.209Z,6.84
2022-11-23T10:31:57.213Z,6.87
2022-11-23T10:34:43.122Z,7.37
2022-11-23T10:37:12.257Z,7.63
2022-11-23T10:39:39.121Z,7.71
2022-11-23T10:42:20.799Z,7.13
2022-11-23T10:44:49.875Z,7.18
2022-11-23T10:47:35.232Z,7.34
2022-11-23T10:50:02.509Z,7.13
2022-11-23T10:52:30.982Z,7.35
2022-11-23T10:55:19.485Z,7.47
2022-11-23T10:58:37.470Z,7.49
2022-11-23T11:01:25.824Z,7.71
2022-11-23T11:03:53.652Z,7.65
2022-11-23T11:06:42.595Z,8.18
2022-11-23T11:09:24.686Z,8.01
2022-11-23T11:11:52.353Z,8.01
2022-11-23T11:14:43.259Z,7.89
2022-11-23T11:17:28.562Z,8.01
2022-11-23T11:19:55.448Z,8.69
2022-11-23T11:22:33.881Z,8.78
2022-11-23T11:25:21.499Z,8.35
2022-11-23T11:28:06.924Z,8.96
2022-11-23T11:30:51.687Z,9.29
2022-11-23T11:33:21.972Z,9.05
2022-11-23T11:35:51.862Z,8.93
2022-11-23T11:38:32.617Z,8.88
2022-11-23T11:41:01.595Z,8.87
2022-11-23T11:43:37.828Z,8.57
2022-11-23T11:49:11.574Z,8.86
2022-11-23T11:51:41.309Z,9.31
2022-11-23T11:54:37.566Z,8.88
2022-11-23T11:57:57.549Z,8.85
2022-11-23T12:00:43.667Z,8.87
2022-11-23T12:03:20.700Z,8.71
2022-11-23T12:05:49.516Z,8.71
2022-11-23T12:08:45.543Z,8.83
2022-11-23T12:11:26.018Z,8.86
2022-11-23T12:13:55.922Z,8.88
2022-11-23T12:16:28.837Z,8.86
2022-11-23T12:18:55.706Z,8.79
2022-11-23T12:21:22.794Z,8.91
2022-11-23T12:24:09.545Z,9.01
2022-11-23T12:26:50.085Z,9.01
2022-11-23T12:29:29.347Z,9.26
2022-11-23T12:32:08.485Z,9.23
2022-11-23T12:34:35.407Z,9.16
2022-11-23T12:37:12.063Z,9.11
2022-11-23T12:39:54.661Z,9.17
2022-11-23T12:42:21.441Z,9.13
2022-11-23T12:45:01.076Z,9.22
2022-11-23T12:48:00.576Z,9.11
2022-11-23T12:50:48.120Z,9.02
2022-11-23T12:53:24.259Z,9.04
2022-11-23T12:56:24.582Z,9.23
2022-11-23T12:59:08.332Z,9.35
2022-11-23T13:01:37.617Z,9.23
2022-11-23T13:04:24.600Z,9.23
2022-11-23T13:07:32.740Z,9.41
2022-11-23T13:10:22.987Z,9.43
2022-11-23T13:13:14.055Z,9.22
2022-11-23T13:16:01.656Z,9.21
2022-11-23T13:18:41.795Z,9.26
2022-11-23T13:21:17.870Z,9.28
2022-11-23T13:24:04.686Z,9.36
2022-11-23T13:26:45.070Z,9.33
2022-11-23T13:29:38.401Z,9.39
2022-11-23T13:32:24.235Z,9.29
2022-11-23T13:35:11.572Z,9.22
2022-11-23T13:38:12.582Z,9.30
2022-11-23T13:41:13.582Z,9.23
2022-11-23T13:44:33.798Z,9.40
2022-11-23T13:47:36.480Z,9.40
2022-11-23T13:50:20.353Z,9.32
2022-11-23T13:53:07.681Z,9.40
2022-11-23T13:56:03.652Z,9.46
2022-11-23T13:59:01.957Z,9.38
2022-11-23T14:02:09.693Z,9.51
2022-11-23T14:05:29.620Z,9.29
2022-11-23T14:08:21.188Z,9.38
2022-11-23T14:10:49.537Z,9.43
2022-11-23T14:13:19.292Z,9.34
2022-11-23T14:15:54.177Z,9.23
2022-11-23T14:18:36.689Z,9.12
2022-11-23T14:21:12.862Z,9.08
2022-11-23T14:24:17.691Z,9.20
2022-11-23T14:27:46.207Z,9.27
2022-11-23T14:30:32.484Z,9.20
2022-11-23T14:33:03.936Z,9.01
2022-11-23T14:35:49.683Z,8.91
2022-11-23T14:38:56.649Z,8.94
2022-11-23T14:41:48.680Z,8.97
2022-11-23T14:44:49.700Z,8.71
2022-11-23T14:47:31.629Z,8.62
2022-11-23T14:49:58.622Z,8.53
2022-11-23T14:52:49.609Z,8.48
2022-11-23T14:55:50.733Z,8.38
2022-11-23T14:58:51.653Z,8.26
2022-11-23T15:01:54.656Z,8.13
2022-11-23T15:05:16.689Z,8.07
2022-11-23T15:08:05.086Z,8.09
2022-11-23T15:10:44.421Z,8.06
2022-11-23T15:13:37.701Z,7.93
2022-11-23T15:16:05.281Z,7.83
2022-11-23T15:18:33.282Z,7.76
2022-11-23T15:21:02.294Z,7.69
2022-11-23T15:23:51.746Z,7.62
2022-11-23T15:26:49.318Z,7.44
2022-11-23T15:29:33.785Z,7.29
2022-11-23T15:32:30.077Z,7.34
2022-11-23T15:35:02.728Z,7.28
2022-11-23T15:38:03.738Z,7.09
2022-11-23T15:40:45.235Z,6.90
2022-11-23T15:43:13.193Z,6.72
2022-11-23T15:45:46.555Z,6.68
2022-11-23T15:48:35.696Z,6.79
2022-11-23T15:51:40.010Z,6.67
2022-11-23T15:54:32.936Z,6.45
2022-11-23T15:57:22.238Z,6.24
2022-11-23T16:00:13.669Z,6.07
2022-11-23T16:03:14.156Z,5.93
2022-11-23T16:05:40.954Z,5.87
2022-11-23T16:08:24.103Z,5.77
2022-11-23T16:11:12.701Z,5.56
2022-11-23T16:13:53.222Z,5.45
2022-11-23T16:16:21.961Z,5.36
2022-11-23T16:18:52.292Z,4.93
2022-11-23T16:21:20.287Z,5.21
2022-11-23T16:24:08.708Z,5.15
2022-11-23T16:26:49.286Z,5.23
2022-11-23T16:29:27.302Z,5.17
2022-11-23T16:32:01.723Z,5.05
2022-11-23T16:34:28.943Z,5.01
2022-11-23T16:36:56.124Z,5.02
2022-11-23T16:39:24.179Z,5.06
2022-11-23T16:41:54.285Z,4.95
2022-11-23T16:44:21.168Z,4.91
2022-11-23T16:46:48.374Z,4.81
2022-11-23T16:49:19.813Z,4.74
2022-11-23T16:51:56.146Z,4.66
2022-11-23T16:54:43.697Z,4.56
2022-11-23T16:57:46.741Z,4.50
2022-11-23T17:00:48.701Z,4.51
2022-11-23T17:03:29.583Z,4.92
2022-11-23T17:05:56.467Z,5.00
2022-11-23T17:08:24.112Z,4.81
2022-11-23T17:11:11.782Z,4.59
2022-11-23T17:14:18.156Z,4.54
2022-11-23T17:17:02.011Z,4.73
2022-11-23T17:19:29.062Z,4.72
2022-11-23T17:21:55.942Z,4.80
2022-11-23T17:24:35.869Z,4.78
2022-11-23T17:27:17.822Z,4.76
2022-11-23T17:29:45.295Z,4.78
2022-11-23T17:32:32.747Z,4.85
2022-11-23T17:35:13.384Z,5.16
2022-11-23T17:37:40.292Z,5.09
2022-11-23T17:40:13.865Z,4.90
2022-11-23T17:43:00.760Z,4.74
2022-11-23T17:46:01.793Z,4.91
2022-11-23T17:48:42.412Z,5.00
2022-11-23T17:51:11.135Z,5.08
2022-11-23T17:53:57.735Z,5.06
2022-11-23T17:56:58.751Z,4.87
2022-11-23T17:59:39.178Z,4.74
2022-11-23T18:02:06.584Z,4.51
2022-11-23T18:04:33.426Z,4.38
2022-11-23T18:07:00.447Z,4.24
2022-11-23T18:09:27.620Z,4.18
2022-11-23T18:11:54.615Z,4.37
2022-11-23T18:14:41.718Z,4.36
2022-11-23T18:17:42.743Z,4.26
2022-11-23T18:20:23.489Z,4.15
2022-11-23T18:22:50.489Z,3.99
2022-11-23T18:25:37.763Z,3.98
2022-11-23T18:28:18.806Z,3.84
2022-11-23T18:30:48.025Z,3.97
2022-11-23T18:33:16.000Z,4.24
2022-11-23T18:35:42.742Z,4.45
2022-11-23T18:38:09.583Z,4.38
2022-11-23T18:40:36.455Z,4.09
2022-11-23T18:43:03.263Z,3.94
2022-11-23T18:45:30.358Z,3.88
2022-11-23T18:47:57.418Z,3.89
2022-11-23T18:50:24.321Z,3.80
2022-11-23T18:53:12.773Z,3.84
2022-11-23T18:55:57.531Z,3.98
2022-11-23T18:58:31.502Z,3.83
2022-11-23T19:00:58.290Z,3.81
2022-11-23T19:03:25.191Z,3.84
2022-11-23T19:05:51.954Z,3.82
2022-11-23T19:08:18.882Z,3.67
2022-11-23T19:10:45.632Z,3.62
2022-11-23T19:13:32.807Z,3.55
2022-11-23T19:16:35.792Z,3.53
2022-11-23T19:19:36.804Z,3.51
2022-11-23T19:22:17.405Z,3.48
2022-11-23T19:25:04.792Z,3.42
2022-11-23T19:28:05.793Z,3.30
2022-11-23T19:30:46.318Z,3.25
2022-11-23T19:33:13.303Z,3.35
2022-11-23T19:35:40.324Z,3.29
2022-11-23T19:38:07.070Z,3.31
2022-11-23T19:40:33.895Z,3.29
2022-11-23T19:43:00.725Z,3.30
2022-11-23T19:45:27.517Z,3.23
2022-11-23T19:48:14.804Z,3.25
2022-11-23T19:51:00.304Z,3.26
2022-11-23T19:53:30.971Z,3.44
2022-11-23T19:56:05.147Z,3.60
2022-11-23T19:58:32.612Z,3.89
2022-11-23T20:01:00.169Z,3.83
2022-11-23T20:03:27.040Z,3.76
2022-11-23T20:06:17.801Z,3.72
2022-11-23T20:09:19.866Z,4.05
2022-11-23T20:12:20.809Z,4.35
2022-11-23T20:15:15.797Z,4.41
2022-11-23T20:17:45.342Z,4.67
2022-11-23T20:20:13.307Z,4.71
2022-11-23T20:23:00.849Z,4.15
2022-11-23T20:26:01.840Z,3.98
2022-11-23T20:28:42.619Z,3.79
2022-11-23T20:31:19.867Z,3.77
2022-11-23T20:34:10.726Z,3.68
2022-11-23T20:37:13.827Z,3.65
2022-11-23T20:39:54.362Z,3.67
2022-11-23T20:42:22.225Z,3.74
2022-11-23T20:44:49.284Z,3.64
2022-11-23T20:47:16.308Z,3.58
2022-11-23T20:49:43.138Z,3.50
2022-11-23T20:52:09.961Z,3.61
2022-11-23T20:54:37.094Z,3.79
2022-11-23T20:57:04.090Z,4.02
2022-11-23T20:59:33.032Z,4.13
2022-11-23T21:02:00.006Z,4.17
2022-11-23T21:04:46.858Z,4.26
2022-11-23T21:07:47.865Z,4.31
2022-11-23T21:11:06.879Z,4.32
2022-11-23T21:14:17.639Z,4.32
2022-11-23T21:17:18.865Z,4.32
2022-11-23T21:19:59.543Z,4.33
2022-11-23T21:22:26.304Z,4.35
2022-11-23T21:25:13.869Z,4.35
2022-11-23T21:28:14.842Z,4.16
2022-11-23T21:31:23.866Z,4.11
2022-11-23T21:34:35.010Z,4.13
2022-11-23T21:37:35.904Z,3.95
2022-11-23T21:40:36.858Z,3.83
2022-11-23T21:43:40.879Z,3.76
2022-11-23T21:46:27.585Z,3.76
2022-11-23T21:48:55.852Z,3.53
2022-11-23T21:51:26.259Z,3.45
2022-11-23T21:53:57.068Z,3.36
2022-11-23T21:56:24.106Z,3.38
2022-11-23T21:59:10.834Z,3.31
2022-11-23T22:01:51.471Z,3.36
2022-11-23T22:04:19.145Z,3.08
2022-11-23T22:06:46.055Z,3.00
2022-11-23T22:09:12.943Z,2.94
2022-11-23T22:11:41.297Z,2.97
2022-11-23T22:14:09.792Z,3.03
2022-11-23T22:16:57.898Z,3.10
2022-11-23T22:19:38.523Z,3.20
2022-11-23T22:22:07.430Z,3.17
2022-11-23T22:24:54.873Z,3.24
2022-11-23T22:27:36.387Z,3.20
2022-11-23T22:30:03.398Z,3.23
2022-11-23T22:32:31.225Z,3.30
2022-11-23T22:34:58.172Z,3.27
2022-11-23T22:37:44.868Z,3.17
2022-11-23T22:40:45.907Z,3.32
2022-11-23T22:43:26.611Z,3.30
2022-11-23T22:45:53.693Z,3.18
2022-11-23T22:48:20.771Z,3.13
2022-11-23T22:50:54.629Z,3.24
2022-11-23T22:53:21.430Z,3.37
2022-11-23T22:55:48.576Z,3.49
2022-11-23T22:58:15.383Z,3.64
2022-11-23T23:01:02.923Z,3.67
2022-11-23T23:03:43.742Z,3.80
2022-11-23T23:06:17.932Z,4.04
2022-11-23T23:08:45.903Z,4.00
2022-11-23T23:11:13.561Z,3.91
2022-11-23T23:13:40.593Z,3.86
2022-11-23T23:16:08.540Z,3.79
2022-11-23T23:18:35.557Z,3.78
2022-11-23T23:21:03.554Z,3.77
2022-11-23T23:23:54.900Z,3.66
2022-11-23T23:26:35.534Z,3.44
2022-11-23T23:29:02.498Z,3.29
2022-11-23T23:31:52.019Z,3.30
2022-11-23T23:34:52.908Z,3.10
2022-11-23T23:37:53.922Z,2.98
2022-11-23T23:40:54.874Z,3.00
2022-11-23T23:43:55.907Z,2.85
2022-11-23T23:46:36.340Z,2.77
2022-11-23T23:49:03.122Z,2.66
2022-11-23T23:51:29.922Z,2.80
2022-11-23T23:53:57.609Z,2.82
2022-11-23T23:56:26.907Z,2.70
2022-11-23T23:58:57.847Z,2.57
